createdAt,value
2018-02-21T04:32:43.094Z,82.20
2018-02-21T04:35:10.733Z,78.05
2018-02-21T04:37:38.373Z,90.35
2018-02-21T04:40:06.065Z,84.68
2018-02-21T04:42:33.700Z,75.50
2018-02-21T04:45:01.345Z,83.62
2018-02-21T04:47:29.784Z,76.45
2018-02-21T04:49:57.420Z,78.47
2018-02-21T04:52:25.066Z,94.87
2018-02-21T04:54:57.910Z,94.45
2018-02-21T04:57:28.333Z,103.80
2018-02-21T05:00:01.829Z,108.28
2018-02-21T05:02:29.493Z,88.62
2018-02-21T05:04:57.137Z,116.00
2018-02-21T05:07:24.808Z,116.05
2018-02-21T05:09:52.457Z,109.82
2018-02-21T05:12:20.100Z,99.22
2018-02-21T05:14:47.785Z,102.38
2018-02-21T05:17:15.428Z,118.60
2018-02-21T05:19:43.073Z,113.10
2018-02-21T05:22:10.761Z,105.45
2018-02-21T05:24:38.409Z,106.55
2018-02-21T05:27:06.048Z,111.60
2018-02-21T05:29:33.741Z,115.88
2018-02-21T05:32:01.387Z,107.45
2018-02-21T05:34:29.801Z,119.15
2018-02-21T05:36:58.256Z,112.75
2018-02-21T05:39:25.903Z,106.95
2018-02-21T05:41:53.551Z,111.32
2018-02-21T05:44:21.226Z,100.50
2018-02-21T05:46:48.871Z,130.27
2018-02-21T05:49:16.513Z,107.07
2018-02-21T05:51:44.185Z,112.15
2018-02-21T05:54:11.832Z,102.60
2018-02-21T05:56:39.490Z,126.97
2018-02-21T05:59:07.157Z,116.90
2018-02-21T06:01:34.841Z,108.55
2018-02-21T06:04:02.489Z,121.25
2018-02-21T06:06:30.138Z,115.28
2018-02-21T06:08:57.809Z,122.57
2018-02-21T06:11:25.457Z,124.45
2018-02-21T06:13:53.150Z,125.30
2018-02-21T06:16:20.792Z,134.12
2018-02-21T06:18:48.432Z,125.93
2018-02-21T06:21:16.105Z,124.65
2018-02-21T06:23:43.794Z,125.60
2018-02-21T06:26:11.432Z,128.77
2018-02-21T06:28:39.077Z,126.60
2018-02-21T06:31:06.768Z,127.43
2018-02-21T06:33:34.413Z,120.50
2018-02-21T06:36:02.102Z,126.62
2018-02-21T06:38:29.782Z,128.35
2018-02-21T06:40:57.426Z,114.78
2018-02-21T06:43:25.126Z,129.87
2018-02-21T06:45:53.539Z,134.52
2018-02-21T06:48:21.175Z,144.25
2018-02-21T06:50:48.845Z,138.62
2018-02-21T06:53:16.488Z,127.90
2018-02-21T06:55:44.156Z,146.15
2018-02-21T06:58:11.859Z,134.77
2018-02-21T07:00:39.505Z,136.07
2018-02-21T07:03:07.153Z,112.10
2018-02-21T07:05:34.854Z,128.55
2018-02-21T07:08:02.502Z,138.77
2018-02-21T07:10:30.140Z,120.18
2018-02-21T07:12:57.831Z,130.32
2018-02-21T07:15:25.545Z,156.00
2018-02-21T07:17:53.923Z,129.57
2018-02-21T07:20:21.609Z,146.15
2018-02-21T07:22:49.248Z,131.57
2018-02-21T07:25:16.894Z,134.50
2018-02-21T07:27:45.321Z,130.93
2018-02-21T07:30:12.990Z,140.90
2018-02-21T07:32:40.637Z,149.32
2018-02-21T07:35:08.288Z,146.05
2018-02-21T07:37:35.977Z,142.65
2018-02-21T07:40:03.626Z,149.82
2018-02-21T07:42:31.279Z,125.90
2018-02-21T07:44:58.946Z,131.75
2018-02-21T07:47:26.585Z,142.95
2018-02-21T07:49:54.277Z,133.75
2018-02-21T07:52:21.921Z,138.12
2018-02-21T07:54:49.565Z,137.07
2018-02-21T07:57:17.267Z,137.15
2018-02-21T07:59:44.927Z,156.95
2018-02-21T08:02:12.573Z,153.77
2018-02-21T08:04:41.005Z,178.52
2018-02-21T08:07:08.649Z,171.23
2018-02-21T08:09:37.096Z,163.23
2018-02-21T08:12:04.733Z,165.93
2018-02-21T08:14:32.380Z,161.80
2018-02-21T08:17:00.062Z,157.30
2018-02-21T08:19:27.700Z,155.65
2018-02-21T08:21:55.336Z,136.57
2018-02-21T08:24:23.880Z,138.20
2018-02-21T08:26:51.521Z,135.68
2018-02-21T08:29:19.161Z,154.60
2018-02-21T08:31:46.857Z,152.65
2018-02-21T08:34:14.502Z,141.07
2018-02-21T08:36:42.142Z,157.48
2018-02-21T08:39:09.829Z,148.75
2018-02-21T08:41:37.472Z,121.53
2018-02-21T08:44:05.117Z,145.40
2018-02-21T08:46:32.785Z,128.93
2018-02-21T08:49:00.453Z,139.77
2018-02-21T08:51:28.141Z,130.00
2018-02-21T08:53:56.569Z,142.10
2018-02-21T08:56:24.210Z,130.57
2018-02-21T08:58:52.645Z,133.87
2018-02-21T09:01:20.290Z,156.70
2018-02-21T09:03:47.924Z,136.20
2018-02-21T09:06:15.590Z,131.63
2018-02-21T09:08:43.235Z,140.98
2018-02-21T09:11:11.669Z,131.93
2018-02-21T09:13:39.367Z,137.43
2018-02-21T09:16:07.778Z,134.37
2018-02-21T09:18:35.421Z,134.27
2018-02-21T09:21:03.125Z,131.70
2018-02-21T09:23:30.766Z,139.02
2018-02-21T09:25:58.410Z,125.65
2018-02-21T09:28:26.106Z,118.68
2018-02-21T09:30:53.749Z,121.40
2018-02-21T09:33:21.401Z,122.47
2018-02-21T09:35:49.090Z,118.47
2018-02-21T09:38:16.737Z,130.75
2018-02-21T09:40:44.385Z,146.57
2018-02-21T09:43:12.101Z,128.15
2018-02-21T09:45:39.737Z,150.12
2018-02-21T09:48:08.149Z,162.93
2018-02-21T09:50:36.581Z,156.65
2018-02-21T09:53:04.224Z,134.75
2018-02-21T09:55:31.892Z,134.12
2018-02-21T09:57:59.540Z,124.40
2018-02-21T10:00:27.185Z,125.62
2018-02-21T10:02:55.620Z,114.28
2018-02-21T10:05:23.266Z,100.15
2018-02-21T10:07:50.913Z,127.20
2018-02-21T10:10:18.585Z,118.82
2018-02-21T10:12:46.229Z,124.60
2018-02-21T10:15:13.869Z,125.50
2018-02-21T10:17:41.554Z,104.57
2018-02-21T10:20:09.201Z,115.22
2018-02-21T10:22:36.844Z,110.78
2018-02-21T10:25:04.512Z,100.68
2018-02-21T10:27:32.152Z,114.75
2018-02-21T10:30:00.560Z,103.65
2018-02-21T10:32:28.229Z,116.90
2018-02-21T10:34:56.143Z,105.15
2018-02-21T10:37:23.844Z,115.10
2018-02-21T10:39:51.489Z,119.13
2018-02-21T10:42:19.898Z,102.75
2018-02-21T10:44:47.553Z,85.03
2018-02-21T10:47:15.200Z,103.43
2018-02-21T10:49:42.868Z,98.87
2018-02-21T10:52:10.541Z,93.68
2018-02-21T10:54:38.184Z,108.28
2018-02-21T10:57:05.870Z,105.70
2018-02-21T10:59:33.548Z,101.40
2018-02-21T11:02:01.193Z,108.45
2018-02-21T11:04:28.861Z,103.12
2018-02-21T11:06:56.501Z,101.68
2018-02-21T11:09:24.141Z,115.07
2018-02-21T11:11:51.829Z,111.15
2018-02-21T11:14:19.473Z,105.60
2018-02-21T11:16:47.121Z,117.22
2018-02-21T11:19:14.823Z,104.38
2018-02-21T11:21:42.465Z,104.30
2018-02-21T11:24:10.102Z,98.10
2018-02-21T11:26:37.821Z,114.50
2018-02-21T11:29:05.465Z,115.65
2018-02-21T11:31:33.105Z,103.93
2018-02-21T11:34:00.768Z,106.30
2018-02-21T11:36:28.417Z,94.80
2018-02-21T11:38:56.053Z,93.20
2018-02-21T11:41:24.587Z,93.65
2018-02-21T11:43:52.224Z,98.97
2018-02-21T11:46:19.863Z,98.65
2018-02-21T11:48:48.300Z,99.57
2018-02-21T11:51:15.935Z,82.93
2018-02-21T11:53:43.629Z,83.90
2018-02-21T11:56:11.278Z,93.85
2018-02-21T11:58:38.928Z,93.10
2018-02-21T12:01:06.605Z,80.97
2018-02-21T12:03:34.245Z,79.05
2018-02-21T12:06:01.890Z,76.72
2018-02-21T12:08:29.557Z,73.78
2018-02-21T12:10:57.201Z,72.15
2018-02-21T12:13:24.868Z,71.18
2018-02-21T12:15:52.561Z,74.60
2018-02-21T12:18:20.198Z,61.08
2018-02-21T12:20:47.840Z,78.55
2018-02-21T12:23:15.516Z,70.40
2018-02-21T12:25:43.169Z,68.47
2018-02-21T12:28:10.800Z,66.55
2018-02-21T12:30:39.280Z,73.97
2018-02-21T12:33:07.682Z,59.50
2018-02-21T12:35:35.314Z,66.80
2018-02-21T12:38:03.760Z,70.87
2018-02-21T12:40:37.005Z,61.78
2018-02-21T12:43:04.684Z,59.83
2018-02-21T12:45:32.331Z,60.10
2018-02-21T12:47:59.968Z,64.82
2018-02-21T12:50:28.410Z,59.97
2018-02-21T12:52:56.045Z,65.50
2018-02-21T12:55:23.682Z,58.03
2018-02-21T12:57:51.357Z,52.67
2018-02-21T13:00:18.988Z,52.00
2018-02-21T13:02:47.384Z,46.63
2018-02-21T13:05:15.048Z,55.53
2018-02-21T13:07:42.709Z,50.12
2018-02-21T13:10:10.384Z,48.95
2018-02-21T13:12:38.017Z,55.63
2018-02-21T13:15:05.656Z,45.83
2018-02-21T13:17:33.313Z,50.17
2018-02-21T13:20:02.139Z,49.25
2018-02-21T13:22:29.801Z,47.55
2018-02-21T13:24:57.432Z,44.58
2018-02-21T13:27:25.873Z,59.95
2018-02-21T13:29:53.504Z,46.50
2018-02-21T13:32:21.136Z,45.55
2018-02-21T13:34:49.577Z,51.05
2018-02-21T13:37:17.271Z,46.30
2018-02-21T13:39:45.677Z,56.63
2018-02-21T13:42:13.312Z,50.97
2018-02-21T13:44:41.772Z,52.85
2018-02-21T13:47:09.410Z,51.63
2018-02-21T13:49:37.048Z,49.80
2018-02-21T13:52:04.702Z,51.83
2018-02-21T13:54:32.335Z,55.40
2018-02-21T13:57:00.762Z,57.53
2018-02-21T13:59:28.448Z,50.72
2018-02-21T14:01:56.090Z,59.55
2018-02-21T14:04:23.723Z,58.08
2018-02-21T14:06:51.396Z,54.40
2018-02-21T14:09:19.038Z,58.80
2018-02-21T14:11:46.677Z,62.38
2018-02-21T14:14:15.129Z,57.55
2018-02-21T14:16:42.765Z,62.97
2018-02-21T14:19:10.401Z,62.10
2018-02-21T14:21:38.097Z,62.83
2018-02-21T14:24:05.732Z,59.22
2018-02-21T14:26:33.370Z,58.55
2018-02-21T14:29:01.028Z,64.55
2018-02-21T14:31:28.664Z,63.47
2018-02-21T14:33:57.068Z,65.68
2018-02-21T14:36:24.724Z,62.13
2018-02-21T14:38:52.354Z,52.75
2018-02-21T14:41:20.029Z,49.88
2018-02-21T14:43:47.679Z,53.15
2018-02-21T14:46:15.314Z,59.17
2018-02-21T14:48:43.773Z,48.22
2018-02-21T14:51:11.408Z,50.90
2018-02-21T14:53:39.041Z,51.42
2018-02-21T14:56:07.481Z,57.17
2018-02-21T14:58:36.016Z,60.22
2018-02-21T15:01:04.453Z,56.60
2018-02-21T15:03:32.090Z,47.70
2018-02-21T15:05:59.730Z,46.53
2018-02-21T15:08:27.397Z,48.13
2018-02-21T15:10:55.028Z,55.72
2018-02-21T15:13:23.532Z,60.55
2018-02-21T15:15:51.161Z,45.58
2018-02-21T15:18:19.556Z,70.45
2018-02-21T15:20:47.232Z,52.20
2018-02-21T15:23:14.869Z,59.58
2018-02-21T15:25:43.295Z,52.08
2018-02-21T15:28:10.957Z,50.38
2018-02-21T15:30:38.594Z,49.15
2018-02-21T15:33:06.268Z,48.38
2018-02-21T15:35:33.896Z,46.15
2018-02-21T15:38:01.568Z,51.50
2018-02-21T15:40:29.261Z,45.30
2018-02-21T15:42:56.905Z,48.33
2018-02-21T15:45:24.545Z,48.55
2018-02-21T15:47:52.228Z,48.28
2018-02-21T15:50:19.859Z,39.10
2018-02-21T15:52:47.544Z,44.83
2018-02-21T15:55:15.184Z,39.20
2018-02-21T15:57:42.822Z,38.80
2018-02-21T16:00:11.244Z,40.53
2018-02-21T16:02:38.876Z,44.10
2018-02-21T16:05:07.277Z,36.72
2018-02-21T16:07:34.965Z,36.17
2018-02-21T16:10:02.613Z,42.20
2018-02-21T16:12:30.245Z,39.42
2018-02-21T16:14:57.944Z,40.53
2018-02-21T16:17:25.586Z,37.55
2018-02-21T16:19:53.215Z,36.78
2018-02-21T16:22:21.644Z,34.90
2018-02-21T16:24:49.272Z,45.53
2018-02-21T16:27:16.932Z,39.13
2018-02-21T16:29:44.589Z,45.78
2018-02-21T16:32:12.221Z,40.25
2018-02-21T16:34:40.635Z,41.83
2018-02-21T16:37:08.297Z,35.45
2018-02-21T16:39:35.932Z,34.95
2018-02-21T16:42:04.352Z,36.92
2018-02-21T16:44:31.988Z,31.00
2018-02-21T16:46:59.657Z,31.17
2018-02-21T16:49:27.487Z,31.08
2018-02-21T16:51:55.174Z,31.52
2018-02-21T16:54:22.808Z,35.88
2018-02-21T16:56:51.265Z,35.97
2018-02-21T16:59:18.897Z,37.60
2018-02-21T17:01:47.300Z,38.58
2018-02-21T17:04:14.958Z,37.17
2018-02-21T17:06:42.600Z,39.80
2018-02-21T17:09:10.240Z,35.63
2018-02-21T17:11:37.924Z,34.88
2018-02-21T17:14:05.565Z,37.20
2018-02-21T17:16:33.209Z,38.40
2018-02-21T17:19:00.916Z,41.83
2018-02-21T17:21:28.557Z,38.90
2018-02-21T17:23:56.192Z,37.40
2018-02-21T17:26:23.872Z,36.28
2018-02-21T17:28:51.509Z,36.17
2018-02-21T17:31:19.204Z,39.30
2018-02-21T17:33:46.885Z,38.50
2018-02-21T17:36:14.523Z,39.75
2018-02-21T17:38:42.166Z,38.45
2018-02-21T17:41:15.690Z,45.65
2018-02-21T17:43:43.329Z,32.17
2018-02-21T17:46:10.961Z,43.67
2018-02-21T17:48:38.619Z,34.13
2018-02-21T17:51:07.047Z,36.95
2018-02-21T17:53:34.686Z,34.53
2018-02-21T17:56:02.364Z,39.72
2018-02-21T17:58:30.148Z,44.88
2018-02-21T18:00:57.787Z,32.83
2018-02-21T18:03:25.428Z,41.83
2018-02-21T18:05:53.117Z,31.87
2018-02-21T18:08:20.769Z,33.50
2018-02-21T18:10:48.408Z,32.85
2018-02-21T18:13:16.082Z,45.00
2018-02-21T18:15:43.725Z,38.22
2018-02-21T18:18:11.420Z,33.85
2018-02-21T18:20:39.069Z,35.08
2018-02-21T18:23:06.710Z,41.67
2018-02-21T18:25:34.377Z,35.40
2018-02-21T18:28:02.021Z,38.22
2018-02-21T18:30:29.665Z,40.28
2018-02-21T18:32:58.104Z,38.40
2018-02-21T18:35:25.746Z,42.92
2018-02-21T18:37:53.393Z,41.22
2018-02-21T18:40:21.070Z,37.45
2018-02-21T18:42:48.756Z,38.03
2018-02-21T18:45:16.393Z,39.05
2018-02-21T18:47:44.041Z,46.50
2018-02-21T18:50:11.737Z,43.10
2018-02-21T18:52:40.451Z,41.10
2018-02-21T18:55:08.937Z,43.08
2018-02-21T18:57:36.721Z,43.83
2018-02-21T19:00:05.040Z,40.72
2018-02-21T19:02:33.488Z,37.95
2018-02-21T19:05:01.313Z,43.67
2018-02-21T19:07:29.719Z,40.80
2018-02-21T19:09:57.420Z,50.45
2018-02-21T19:12:25.111Z,52.97
2018-02-21T19:14:53.420Z,46.95
2018-02-21T19:17:21.099Z,47.42
2018-02-21T19:19:48.880Z,54.38
2018-02-21T19:22:16.556Z,47.80
2018-02-21T19:24:44.201Z,46.92
2018-02-21T19:27:11.945Z,44.40
2018-02-21T19:29:39.624Z,50.75
2018-02-21T19:32:07.268Z,43.33
2018-02-21T19:34:34.944Z,39.97
2018-02-21T19:37:02.617Z,46.63
2018-02-21T19:39:30.261Z,55.92
2018-02-21T19:41:57.904Z,40.17
2018-02-21T19:44:25.568Z,46.83
2018-02-21T19:46:54.017Z,41.65
2018-02-21T19:49:21.651Z,50.25
2018-02-21T19:51:50.063Z,41.85
2018-02-21T19:54:17.737Z,45.12
2018-02-21T19:56:45.408Z,43.35
2018-02-21T19:59:13.043Z,42.33
2018-02-21T20:01:40.716Z,40.90
2018-02-21T20:04:08.397Z,43.45
2018-02-21T20:06:36.049Z,42.03
2018-02-21T20:09:03.741Z,44.70
2018-02-21T20:11:31.431Z,48.87
2018-02-21T20:13:59.063Z,39.65
2018-02-21T20:16:26.703Z,47.42
2018-02-21T20:18:54.393Z,55.12
2018-02-21T20:21:22.805Z,71.20
2018-02-21T20:23:50.492Z,61.70
2018-02-21T20:26:18.185Z,67.05
2018-02-21T20:28:45.831Z,53.00
2018-02-21T20:31:13.478Z,47.33
2018-02-21T20:33:41.156Z,41.58
2018-02-21T20:36:08.796Z,53.87
2018-02-21T20:38:36.444Z,59.92
2018-02-21T20:41:04.105Z,55.80
2018-02-21T20:43:31.754Z,45.42
2018-02-21T20:45:59.433Z,61.20
2018-02-21T20:48:27.089Z,64.40
2018-02-21T20:50:54.728Z,45.88
2018-02-21T20:53:22.420Z,45.55
2018-02-21T20:55:50.115Z,51.58
2018-02-21T20:58:17.794Z,44.88
2018-02-21T21:00:46.203Z,41.90
2018-02-21T21:03:13.861Z,48.10
2018-02-21T21:05:41.545Z,45.72
2018-02-21T21:08:09.192Z,41.53
2018-02-21T21:10:36.843Z,43.97
2018-02-21T21:13:04.513Z,46.63
2018-02-21T21:15:32.160Z,42.83
2018-02-21T21:17:59.799Z,39.88
2018-02-21T21:20:27.476Z,55.38
2018-02-21T21:22:55.128Z,44.15
2018-02-21T21:25:22.796Z,42.13
2018-02-21T21:27:50.452Z,43.50
2018-02-21T21:30:18.144Z,37.47
2018-02-21T21:32:45.816Z,44.42
2018-02-21T21:35:13.469Z,37.50
2018-02-21T21:37:41.143Z,42.33
2018-02-21T21:40:08.816Z,38.55
2018-02-21T21:42:36.461Z,48.03
2018-02-21T21:45:04.106Z,43.22
2018-02-21T21:47:31.870Z,38.67
2018-02-21T21:49:59.509Z,41.65
2018-02-21T21:52:27.156Z,43.45
2018-02-21T21:54:54.825Z,42.62
2018-02-21T21:57:22.492Z,39.33
2018-02-21T21:59:50.171Z,43.15
2018-02-21T22:02:17.836Z,45.42
2018-02-21T22:04:45.481Z,50.38
2018-02-21T22:07:13.145Z,41.75
2018-02-21T22:09:40.820Z,47.53
2018-02-21T22:12:08.461Z,41.05
2018-02-21T22:14:36.100Z,48.95
2018-02-21T22:17:03.778Z,56.00
2018-02-21T22:19:31.422Z,53.75
2018-02-21T22:21:59.056Z,42.40
2018-02-21T22:24:27.487Z,51.60
2018-02-21T22:26:55.124Z,43.87
2018-02-21T22:29:22.817Z,48.95
2018-02-21T22:31:50.456Z,49.30
2018-02-21T22:34:18.097Z,50.45
2018-02-21T22:36:45.815Z,49.20
2018-02-21T22:39:13.461Z,46.88
2018-02-21T22:41:41.109Z,50.08
2018-02-21T22:44:09.546Z,46.08
2018-02-21T22:46:37.948Z,50.10
2018-02-21T22:49:05.753Z,45.00
2018-02-21T22:51:33.392Z,43.22
2018-02-21T22:54:01.037Z,42.70
2018-02-21T22:56:28.704Z,49.20
2018-02-21T22:58:56.348Z,46.17
2018-02-21T23:01:23.995Z,42.03
2018-02-21T23:03:51.681Z,42.58
2018-02-21T23:06:19.326Z,37.63
2018-02-21T23:08:47.013Z,43.25
2018-02-21T23:11:14.685Z,45.17
2018-02-21T23:13:42.338Z,48.75
2018-02-21T23:16:10.003Z,42.35
2018-02-21T23:18:37.646Z,48.87
2018-02-21T23:21:05.329Z,47.40
2018-02-21T23:23:32.973Z,51.75
2018-02-21T23:26:00.614Z,54.42
2018-02-21T23:28:28.289Z,41.55
